createdAt,value
2023-09-17T00:00:25.200Z,79.66
2023-09-17T00:01:27.055Z,79.98
2023-09-17T00:02:30.310Z,80.49
2023-09-17T00:03:32.309Z,80.93
2023-09-17T00:04:34.183Z,81.09
2023-09-17T00:05:36.017Z,80.77
2023-09-17T00:06:37.742Z,80.64
2023-09-17T00:07:39.570Z,81.26
2023-09-17T00:08:41.214Z,81.07
2023-09-17T00:09:42.820Z,81.25
2023-09-17T00:10:44.557Z,80.73
2023-09-17T00:11:46.528Z,80.26
2023-09-17T00:12:48.294Z,80.67
2023-09-17T00:13:50.222Z,81.30
2023-09-17T00:14:52.123Z,81.62
2023-09-17T00:15:53.697Z,81.61
2023-09-17T00:16:55.735Z,81.61
2023-09-17T00:17:58.848Z,81.87
2023-09-17T00:19:00.748Z,81.32
2023-09-17T00:20:02.468Z,81.44
2023-09-17T00:21:04.092Z,81.50
2023-09-17T00:22:05.669Z,81.40
2023-09-17T00:23:07.361Z,81.67
2023-09-17T00:24:09.279Z,83.11
2023-09-17T00:25:11.017Z,83.54
2023-09-17T00:26:12.717Z,83.66
2023-09-17T00:27:19.261Z,83.48
2023-09-17T00:28:20.917Z,83.89
2023-09-17T00:29:22.628Z,83.07
2023-09-17T00:30:24.233Z,84.23
2023-09-17T00:31:25.905Z,83.87
2023-09-17T00:32:27.596Z,83.58
2023-09-17T00:33:30.631Z,84.83
2023-09-17T00:34:32.332Z,84.71
2023-09-17T00:35:34.043Z,83.71
2023-09-17T00:36:35.646Z,82.92
2023-09-17T00:37:37.296Z,82.56
2023-09-17T00:38:38.904Z,82.25
2023-09-17T00:39:40.516Z,82.48
2023-09-17T00:40:42.133Z,82.75
2023-09-17T00:41:43.824Z,82.53
2023-09-17T00:42:46.009Z,82.32
2023-09-17T00:43:47.721Z,82.59
2023-09-17T00:44:49.301Z,83.08
2023-09-17T00:45:51.343Z,82.99
2023-09-17T00:46:53.124Z,82.66
2023-09-17T00:47:55.945Z,82.18
2023-09-17T00:49:00.054Z,81.66
2023-09-17T00:50:02.621Z,80.95
2023-09-17T00:51:04.438Z,81.44
2023-09-17T00:52:15.873Z,81.12
2023-09-17T00:53:17.562Z,80.94
2023-09-17T00:54:22.682Z,80.31
2023-09-17T00:55:24.406Z,80.13
2023-09-17T00:56:26.556Z,80.22
2023-09-17T00:57:28.485Z,80.61
2023-09-17T00:58:31.020Z,81.12
2023-09-17T00:59:32.748Z,81.35
2023-09-17T01:00:34.385Z,80.60
2023-09-17T01:01:36.649Z,80.29
2023-09-17T01:02:40.459Z,80.29
2023-09-17T01:03:42.232Z,79.97
2023-09-17T01:04:47.094Z,80.00
2023-09-17T01:05:48.974Z,79.83
2023-09-17T01:06:51.657Z,80.68
2023-09-17T01:07:54.674Z,80.61
2023-09-17T01:08:57.483Z,80.63
2023-09-17T01:09:59.221Z,81.20
2023-09-17T01:11:01.034Z,81.31
2023-09-17T01:12:02.914Z,80.66
2023-09-17T01:13:04.885Z,80.66
2023-09-17T01:14:07.009Z,81.40
2023-09-17T01:15:09.856Z,81.96
2023-09-17T01:16:11.721Z,81.48
2023-09-17T01:17:13.528Z,81.09
2023-09-17T01:18:15.318Z,80.60
2023-09-17T01:19:22.084Z,80.53
2023-09-17T01:20:29.928Z,80.42
2023-09-17T01:21:36.398Z,80.37
2023-09-17T01:22:43.851Z,80.96
2023-09-17T01:23:52.077Z,81.53
2023-09-17T01:25:03.373Z,82.60
2023-09-17T01:26:11.177Z,83.11
2023-09-17T01:27:16.009Z,83.69
2023-09-17T01:28:18.355Z,84.29
2023-09-17T01:44:34.043Z,83.57
2023-09-17T01:45:36.244Z,82.84
2023-09-17T01:46:40.670Z,82.43
2023-09-17T01:47:44.265Z,83.12
2023-09-17T01:48:47.081Z,83.52
2023-09-17T01:49:49.680Z,83.51
2023-09-17T01:50:52.026Z,83.73
2023-09-17T01:51:55.470Z,84.31
2023-09-17T01:52:57.680Z,84.61
2023-09-17T01:54:00.224Z,84.35
2023-09-17T01:55:02.594Z,84.28
2023-09-17T01:56:04.423Z,84.31
2023-09-17T01:57:06.145Z,84.66
2023-09-17T01:58:07.825Z,84.81
2023-09-17T01:59:09.478Z,84.12
2023-09-17T02:00:14.305Z,83.68
2023-09-17T02:01:16.008Z,83.20
2023-09-17T02:02:17.670Z,82.90
2023-09-17T02:03:19.542Z,82.25
2023-09-17T02:04:21.254Z,81.97
2023-09-17T02:05:23.879Z,81.73
2023-09-17T02:06:25.674Z,81.27
2023-09-17T02:07:27.321Z,80.92
2023-09-17T02:08:28.943Z,80.94
2023-09-17T02:09:30.577Z,81.07
2023-09-17T02:10:32.331Z,80.93
2023-09-17T02:11:34.094Z,80.74
2023-09-17T02:12:35.746Z,80.67
2023-09-17T02:13:37.353Z,80.05
2023-09-17T02:14:39.112Z,80.14
2023-09-17T02:15:42.184Z,79.86
2023-09-17T02:16:43.932Z,79.65
2023-09-17T02:17:46.000Z,79.68
2023-09-17T02:18:47.712Z,79.53
2023-09-17T02:19:49.459Z,79.68
2023-09-17T02:20:51.113Z,79.45
2023-09-17T02:21:53.029Z,79.21
2023-09-17T02:22:54.686Z,79.71
2023-09-17T02:23:56.382Z,79.53
2023-09-17T02:24:57.936Z,79.89
2023-09-17T02:25:59.546Z,79.94
2023-09-17T02:27:02.738Z,79.84
2023-09-17T02:28:04.896Z,79.32
2023-09-17T02:29:07.716Z,79.34
2023-09-17T02:30:09.790Z,78.98
2023-09-17T02:31:12.872Z,78.69
2023-09-17T02:32:14.511Z,78.80
2023-09-17T02:33:16.147Z,79.18
2023-09-17T02:34:17.784Z,79.45
2023-09-17T02:35:19.608Z,79.06
2023-09-17T02:36:21.221Z,79.71
2023-09-17T02:37:23.042Z,79.32
2023-09-17T02:38:24.704Z,79.12
2023-09-17T02:39:26.461Z,79.46
2023-09-17T02:40:28.159Z,79.61
2023-09-17T02:41:29.869Z,79.70
2023-09-17T02:42:32.983Z,79.92
2023-09-17T02:43:34.753Z,80.21
2023-09-17T02:44:36.582Z,80.46
2023-09-17T02:45:38.171Z,80.68
2023-09-17T02:46:41.398Z,81.24
2023-09-17T02:47:43.180Z,81.33
2023-09-17T02:48:44.857Z,81.76
2023-09-17T02:49:46.503Z,81.81
2023-09-17T02:50:48.184Z,81.47
2023-09-17T02:51:50.560Z,81.55
2023-09-17T02:52:52.354Z,82.18
2023-09-17T02:53:54.173Z,82.85
2023-09-17T02:54:55.870Z,83.73
2023-09-17T02:55:57.789Z,83.79
2023-09-17T02:56:59.402Z,84.22
2023-09-17T02:58:01.238Z,83.45
2023-09-17T02:59:03.102Z,83.63
2023-09-17T03:00:05.692Z,83.93
2023-09-17T03:01:14.597Z,83.96
2023-09-17T03:02:17.721Z,83.66
2023-09-17T03:03:19.685Z,83.09
2023-09-17T03:04:21.370Z,82.14
2023-09-17T03:05:22.979Z,82.13
2023-09-17T03:06:24.635Z,82.33
2023-09-17T03:07:26.334Z,81.95
2023-09-17T03:08:27.952Z,81.51
2023-09-17T03:09:30.933Z,81.43
2023-09-17T03:10:32.610Z,81.37
2023-09-17T03:11:34.305Z,81.47
2023-09-17T03:12:37.447Z,81.95
2023-09-17T03:13:39.169Z,82.47
2023-09-17T03:14:41.215Z,83.78
2023-09-17T03:15:44.578Z,84.15
2023-09-17T03:16:48.321Z,83.59
2023-09-17T03:17:52.998Z,83.52
2023-09-17T03:18:57.368Z,83.42
2023-09-17T03:19:59.050Z,83.87
2023-09-17T03:21:05.975Z,83.80
2023-09-17T03:22:07.539Z,85.95
2023-09-17T03:23:10.007Z,86.88
2023-09-17T03:24:13.365Z,86.59
2023-09-17T03:25:16.483Z,86.29
2023-09-17T03:26:22.021Z,86.65
2023-09-17T03:27:23.693Z,86.41
2023-09-17T03:28:25.874Z,85.03
2023-09-17T03:29:27.672Z,84.73
2023-09-17T03:30:29.737Z,83.81
2023-09-17T03:31:33.387Z,82.96
2023-09-17T03:32:36.657Z,82.20
2023-09-17T03:33:45.564Z,81.61
2023-09-17T03:34:47.621Z,81.52
2023-09-17T03:35:49.454Z,81.18
2023-09-17T03:36:51.140Z,81.37
2023-09-17T03:37:53.832Z,81.64
2023-09-17T03:38:55.615Z,81.24
2023-09-17T03:40:07.463Z,80.71
2023-09-17T03:41:11.125Z,80.65
2023-09-17T03:42:14.120Z,80.51
2023-09-17T03:43:17.646Z,80.54
2023-09-17T03:44:20.858Z,80.44
2023-09-17T03:45:24.280Z,80.57
2023-09-17T03:46:28.107Z,80.26
2023-09-17T03:47:30.289Z,79.89
2023-09-17T03:48:32.444Z,79.88
2023-09-17T03:49:35.490Z,79.29
2023-09-17T03:50:37.262Z,79.56
2023-09-17T03:51:38.884Z,79.52
2023-09-17T03:52:43.275Z,79.95
2023-09-17T03:53:45.037Z,80.36
2023-09-17T03:54:47.315Z,80.23
2023-09-17T03:55:49.200Z,81.08
2023-09-17T03:56:51.042Z,82.25
2023-09-17T03:57:52.947Z,83.19
2023-09-17T03:58:56.395Z,83.56
2023-09-17T03:59:59.129Z,84.46
2023-09-17T04:01:00.787Z,84.44
2023-09-17T04:02:02.718Z,84.41
2023-09-17T04:03:05.091Z,84.34
2023-09-17T04:04:06.892Z,84.59
2023-09-17T04:05:11.384Z,84.10
2023-09-17T04:06:14.221Z,82.99
2023-09-17T04:07:16.370Z,82.42
2023-09-17T04:08:18.180Z,82.02
2023-09-17T04:09:20.140Z,82.02
2023-09-17T04:10:21.879Z,81.91
2023-09-17T04:11:24.695Z,82.67
2023-09-17T04:12:26.299Z,83.25
2023-09-17T04:13:27.944Z,82.95
2023-09-17T04:14:31.049Z,82.24
2023-09-17T04:15:32.863Z,82.51
2023-09-17T04:16:34.856Z,82.35
2023-09-17T04:17:36.655Z,82.91
2023-09-17T04:18:38.463Z,83.14
2023-09-17T04:19:40.086Z,82.99
2023-09-17T04:20:43.263Z,82.23
2023-09-17T04:21:44.903Z,82.01
2023-09-17T04:22:48.630Z,82.02
2023-09-17T04:23:50.556Z,82.22
2023-09-17T04:24:52.380Z,82.55
2023-09-17T04:25:56.986Z,81.99
2023-09-17T04:26:58.689Z,81.99
2023-09-17T04:28:00.401Z,81.77
2023-09-17T04:29:03.520Z,81.90
2023-09-17T04:30:08.628Z,81.57
2023-09-17T04:31:10.481Z,81.36
2023-09-17T04:32:12.236Z,81.64
2023-09-17T04:33:14.216Z,81.81
2023-09-17T04:34:16.186Z,81.50
2023-09-17T04:35:19.226Z,80.94
2023-09-17T04:36:23.500Z,81.32
2023-09-17T04:37:28.053Z,81.36
2023-09-17T04:38:29.735Z,81.61
2023-09-17T04:39:32.383Z,81.26
2023-09-17T04:40:34.307Z,81.03
2023-09-17T04:41:40.283Z,81.02
2023-09-17T04:42:43.860Z,80.89
2023-09-17T04:43:48.627Z,80.46
2023-09-17T04:44:50.763Z,81.00
2023-09-17T04:45:52.385Z,80.41
2023-09-17T04:46:58.933Z,80.84
2023-09-17T04:48:00.828Z,80.87
2023-09-17T04:49:03.408Z,81.04
2023-09-17T04:50:08.254Z,80.79
2023-09-17T04:51:10.571Z,80.48
2023-09-17T04:52:14.288Z,80.95
2023-09-17T04:53:16.211Z,80.54
2023-09-17T04:54:19.583Z,80.79
2023-09-17T04:55:21.236Z,80.68
2023-09-17T04:56:25.942Z,80.36
2023-09-17T04:57:27.914Z,80.23
2023-09-17T04:58:30.677Z,80.15
2023-09-17T04:59:35.148Z,79.85
2023-09-17T05:00:37.907Z,79.75
2023-09-17T05:01:40.783Z,79.63
2023-09-17T05:02:42.698Z,80.38
2023-09-17T05:03:45.298Z,80.67
2023-09-17T05:04:47.191Z,80.29
2023-09-17T05:05:49.428Z,80.77
2023-09-17T05:06:51.065Z,81.28
2023-09-17T05:07:54.379Z,82.49
2023-09-17T05:08:56.251Z,82.99
2023-09-17T05:09:58.012Z,83.48
2023-09-17T05:10:59.605Z,83.16
2023-09-17T05:12:01.498Z,82.22
2023-09-17T05:13:03.339Z,82.05
2023-09-17T05:14:05.116Z,81.41
2023-09-17T05:15:07.549Z,80.92
2023-09-17T05:16:09.942Z,81.08
2023-09-17T05:17:11.855Z,80.64
2023-09-17T05:18:13.714Z,80.19
2023-09-17T05:19:19.733Z,80.15
2023-09-17T05:20:21.471Z,80.12
2023-09-17T05:21:23.208Z,80.28
2023-09-17T05:22:24.941Z,80.20
2023-09-17T05:23:28.107Z,80.21
2023-09-17T05:24:35.690Z,80.74
2023-09-17T05:25:37.521Z,81.83
2023-09-17T05:26:39.625Z,82.73
2023-09-17T05:27:41.266Z,83.48
2023-09-17T05:28:43.049Z,84.23
2023-09-17T05:29:46.118Z,84.34
2023-09-17T05:30:47.744Z,83.82
2023-09-17T05:31:49.476Z,84.28
2023-09-17T05:32:51.451Z,83.89
2023-09-17T05:33:53.562Z,85.21
2023-09-17T05:34:58.058Z,85.16
2023-09-17T05:35:59.695Z,84.56
2023-09-17T05:37:03.043Z,83.32
2023-09-17T05:38:05.097Z,84.00
2023-09-17T05:39:08.106Z,83.92
2023-09-17T05:40:10.637Z,83.52
2023-09-17T05:41:12.289Z,82.88
2023-09-17T05:42:14.182Z,82.76
2023-09-17T05:43:16.156Z,82.50
2023-09-17T05:44:17.889Z,82.05
2023-09-17T05:45:19.790Z,81.72
2023-09-17T05:46:21.506Z,81.27
2023-09-17T05:47:24.140Z,81.07
2023-09-17T05:48:25.985Z,81.05
2023-09-17T05:49:28.112Z,80.96
2023-09-17T05:50:30.022Z,81.10
2023-09-17T05:51:31.679Z,81.19
2023-09-17T05:52:33.358Z,81.24
2023-09-17T05:53:35.400Z,81.11
2023-09-17T05:54:38.588Z,81.00
2023-09-17T05:55:40.485Z,80.69
2023-09-17T05:56:42.115Z,80.84
2023-09-17T05:57:44.219Z,81.08
2023-09-17T05:58:46.423Z,81.24
2023-09-17T05:59:48.125Z,81.34
2023-09-17T06:00:50.349Z,82.23
2023-09-17T06:01:52.169Z,82.25
2023-09-17T06:02:53.855Z,83.26
2023-09-17T06:03:55.774Z,83.84
2023-09-17T06:04:59.048Z,83.75
2023-09-17T06:06:02.688Z,84.22
2023-09-17T06:07:05.313Z,83.01
2023-09-17T06:08:07.040Z,82.77
2023-09-17T06:09:08.827Z,82.79
2023-09-17T06:10:12.512Z,83.05
2023-09-17T06:11:14.256Z,82.84
2023-09-17T06:12:15.928Z,82.91
2023-09-17T06:13:17.643Z,82.04
2023-09-17T06:14:19.411Z,81.66
2023-09-17T06:15:21.551Z,82.01
2023-09-17T06:16:23.514Z,81.62
2023-09-17T06:17:25.456Z,81.79
2023-09-17T06:18:30.067Z,81.54
2023-09-17T06:19:31.763Z,81.73
2023-09-17T06:20:33.478Z,81.12
2023-09-17T06:21:35.228Z,81.15
2023-09-17T06:22:36.856Z,81.60
2023-09-17T06:23:39.242Z,82.15
2023-09-17T06:24:41.818Z,83.63
2023-09-17T06:25:44.864Z,84.13
2023-09-17T06:26:46.506Z,84.30
2023-09-17T06:27:48.185Z,83.82
2023-09-17T06:28:49.803Z,84.10
2023-09-17T06:29:52.787Z,85.34
2023-09-17T06:30:56.997Z,85.70
2023-09-17T06:32:00.505Z,85.97
2023-09-17T06:33:03.911Z,85.21
2023-09-17T06:34:06.491Z,84.38
2023-09-17T06:35:08.851Z,85.29
2023-09-17T06:36:10.849Z,86.34
2023-09-17T06:37:12.596Z,85.91
2023-09-17T06:38:14.320Z,86.03
2023-09-17T06:39:16.129Z,85.93
2023-09-17T06:40:18.321Z,85.84
2023-09-17T06:41:21.809Z,85.85
2023-09-17T06:42:23.719Z,87.20
2023-09-17T06:43:26.505Z,86.53
2023-09-17T06:44:28.324Z,86.54
2023-09-17T06:45:30.848Z,85.14
2023-09-17T06:46:33.456Z,84.99
2023-09-17T06:47:35.545Z,85.25
2023-09-17T06:48:37.365Z,83.62
2023-09-17T06:49:39.119Z,84.11
2023-09-17T06:50:40.905Z,84.25
2023-09-17T06:51:42.561Z,83.96
2023-09-17T06:52:44.283Z,83.86
2023-09-17T06:53:46.358Z,83.56
2023-09-17T06:54:48.023Z,82.96
2023-09-17T06:55:49.813Z,82.55
2023-09-17T06:56:52.947Z,81.13
2023-09-17T06:57:54.782Z,82.63
2023-09-17T06:58:58.304Z,82.42
2023-09-17T07:00:00.027Z,81.38
2023-09-17T07:01:01.797Z,81.59
2023-09-17T07:02:03.583Z,82.49
2023-09-17T07:03:05.830Z,81.39
2023-09-17T07:04:09.152Z,81.08
2023-09-17T07:05:12.480Z,80.50
2023-09-17T07:06:14.610Z,79.90
2023-09-17T07:07:16.711Z,79.98
2023-09-17T07:08:18.656Z,79.56
2023-09-17T07:09:20.396Z,79.25
2023-09-17T07:10:22.073Z,79.78
2023-09-17T07:11:23.913Z,79.80
2023-09-17T07:12:27.410Z,79.15
2023-09-17T07:13:29.079Z,79.44
2023-09-17T07:14:33.645Z,79.66
2023-09-17T07:15:35.265Z,80.29
2023-09-17T07:16:37.080Z,79.63
2023-09-17T07:17:38.893Z,79.47
2023-09-17T07:18:40.606Z,79.26
2023-09-17T07:19:42.441Z,78.91
2023-09-17T07:20:44.060Z,78.18
2023-09-17T07:21:45.693Z,77.37
2023-09-17T07:22:47.651Z,76.41
2023-09-17T07:23:49.576Z,76.54
2023-09-17T07:24:51.419Z,75.90
2023-09-17T07:25:53.177Z,75.77
2023-09-17T07:26:55.056Z,75.54
2023-09-17T07:27:58.038Z,74.80
2023-09-17T07:28:59.753Z,75.04
2023-09-17T07:30:01.411Z,74.63
2023-09-17T07:31:03.200Z,74.58
2023-09-17T07:32:05.709Z,73.73
2023-09-17T07:33:08.260Z,73.46
2023-09-17T07:34:11.122Z,72.98
2023-09-17T07:35:12.841Z,72.81
2023-09-17T07:36:14.588Z,72.71
2023-09-17T07:37:16.479Z,72.33
2023-09-17T07:38:18.209Z,72.20
2023-09-17T07:39:19.952Z,72.39
2023-09-17T07:40:21.759Z,72.57
2023-09-17T07:41:23.582Z,73.73
2023-09-17T07:42:25.290Z,74.61
2023-09-17T07:43:28.322Z,73.89
2023-09-17T07:44:29.910Z,73.18
2023-09-17T07:45:31.676Z,72.91
2023-09-17T07:46:33.588Z,73.06
2023-09-17T07:47:35.291Z,73.27
2023-09-17T07:48:36.954Z,73.51
2023-09-17T07:49:39.049Z,73.19
2023-09-17T07:50:40.774Z,72.46
2023-09-17T07:51:45.500Z,72.15
2023-09-17T07:52:47.173Z,72.00
2023-09-17T07:53:48.953Z,71.05
2023-09-17T07:54:50.958Z,71.73
2023-09-17T07:55:53.169Z,71.22
2023-09-17T07:56:54.798Z,71.98
2023-09-17T07:57:56.694Z,72.60
2023-09-17T07:58:59.788Z,71.96
2023-09-17T08:00:01.475Z,72.05
2023-09-17T08:01:06.229Z,71.21
2023-09-17T08:02:08.197Z,70.65
2023-09-17T08:03:10.699Z,70.17
2023-09-17T08:04:12.631Z,70.07
2023-09-17T08:05:14.551Z,69.85
2023-09-17T08:06:16.343Z,69.45
2023-09-17T08:07:18.426Z,69.60
2023-09-17T08:08:20.072Z,69.69
2023-09-17T08:09:21.777Z,69.35
2023-09-17T08:10:23.656Z,69.18
2023-09-17T08:11:27.505Z,68.68
2023-09-17T08:12:29.168Z,68.55
2023-09-17T08:13:30.924Z,68.18
2023-09-17T08:14:34.717Z,68.44
2023-09-17T08:15:36.286Z,68.99
2023-09-17T08:16:38.489Z,69.46
2023-09-17T08:17:40.257Z,70.17
2023-09-17T08:18:42.203Z,69.37
2023-09-17T08:19:43.845Z,69.15
2023-09-17T08:20:45.713Z,67.59
2023-09-17T08:21:47.351Z,67.82
2023-09-17T08:22:50.055Z,67.63
2023-09-17T08:23:51.870Z,67.61
2023-09-17T08:24:53.755Z,67.62
2023-09-17T08:25:55.428Z,67.22
2023-09-17T08:26:57.656Z,67.41
2023-09-17T08:27:59.558Z,67.00
2023-09-17T08:29:01.226Z,67.34
2023-09-17T08:30:05.615Z,68.96
2023-09-17T08:31:07.249Z,69.07
2023-09-17T08:32:08.823Z,69.07
2023-09-17T08:33:10.523Z,69.15
2023-09-17T08:34:12.582Z,68.48
2023-09-17T08:35:14.710Z,69.27
2023-09-17T08:36:16.511Z,69.91
2023-09-17T08:37:18.204Z,69.27
2023-09-17T08:38:19.900Z,69.46
2023-09-17T08:39:21.963Z,69.43
2023-09-17T08:40:28.509Z,68.85
2023-09-17T08:41:31.682Z,67.66
2023-09-17T08:42:33.599Z,68.35
2023-09-17T08:43:35.562Z,68.37
2023-09-17T08:44:38.934Z,69.04
2023-09-17T08:45:43.253Z,69.19
2023-09-17T08:46:45.835Z,68.28
2023-09-17T08:47:47.657Z,67.54
2023-09-17T08:48:49.688Z,69.02
2023-09-17T08:49:51.394Z,67.88
2023-09-17T08:50:54.336Z,68.23
2023-09-17T08:51:57.873Z,67.93
2023-09-17T08:53:03.105Z,67.97
2023-09-17T08:54:08.619Z,67.54
2023-09-17T08:55:27.930Z,66.93
2023-09-17T08:56:31.827Z,66.60
2023-09-17T08:57:39.987Z,66.39
2023-09-17T08:58:47.758Z,66.72
2023-09-17T08:59:55.028Z,65.82
2023-09-17T09:01:04.022Z,65.78
2023-09-17T09:02:22.790Z,65.26
2023-09-17T09:03:27.326Z,64.72
2023-09-17T09:04:32.787Z,65.30
2023-09-17T09:05:35.012Z,64.43
2023-09-17T09:06:38.149Z,63.09
2023-09-17T09:07:40.545Z,62.22
2023-09-17T09:08:43.689Z,61.57
2023-09-17T09:09:46.062Z,62.10
2023-09-17T09:10:49.620Z,61.34
2023-09-17T09:11:51.149Z,61.23
2023-09-17T09:12:53.304Z,61.01
2023-09-17T09:13:56.092Z,61.95
2023-09-17T09:14:58.608Z,61.50
2023-09-17T09:16:01.864Z,61.35
2023-09-17T09:17:03.814Z,60.95
2023-09-17T09:18:06.166Z,61.30
2023-09-17T09:19:08.007Z,62.96
2023-09-17T09:20:11.978Z,62.56
2023-09-17T09:21:13.862Z,62.58
2023-09-17T09:22:15.462Z,62.58
2023-09-17T09:23:17.396Z,62.10
2023-09-17T09:24:19.053Z,60.42
2023-09-17T09:25:20.718Z,61.57
2023-09-17T09:26:23.552Z,61.27
2023-09-17T09:27:25.324Z,61.06
2023-09-17T09:28:30.915Z,60.16
2023-09-17T09:29:32.516Z,57.95
2023-09-17T09:30:36.768Z,58.12
2023-09-17T09:31:39.888Z,57.39
2023-09-17T09:32:42.732Z,57.58
2023-09-17T09:33:45.097Z,57.56
2023-09-17T09:34:48.106Z,57.68
2023-09-17T09:35:49.932Z,56.41
2023-09-17T09:36:51.995Z,56.30
2023-09-17T09:37:53.901Z,55.90
2023-09-17T09:38:56.539Z,56.08
2023-09-17T09:39:58.990Z,56.19
2023-09-17T09:41:00.875Z,55.95
2023-09-17T09:42:02.686Z,57.67
2023-09-17T09:43:04.744Z,56.80
2023-09-17T09:44:08.889Z,56.61
2023-09-17T09:45:32.877Z,55.71
2023-09-17T09:48:14.352Z,54.80
2023-09-17T09:49:16.036Z,54.57
2023-09-17T09:50:24.820Z,54.17
2023-09-17T09:51:26.613Z,53.48
2023-09-17T09:52:28.340Z,54.87
2023-09-17T09:53:29.946Z,54.94
2023-09-17T09:54:31.543Z,54.68
2023-09-17T09:55:33.585Z,54.33
2023-09-17T09:56:35.539Z,55.50
2023-09-17T09:57:40.181Z,55.00
2023-09-17T09:58:44.015Z,54.92
2023-09-17T09:59:48.326Z,53.75
2023-09-17T10:00:50.116Z,53.07
2023-09-17T10:01:52.027Z,52.45
2023-09-17T10:02:55.588Z,51.94
2023-09-17T10:03:58.551Z,51.92
2023-09-17T10:05:00.375Z,50.16
2023-09-17T10:06:03.469Z,50.76
2023-09-17T10:07:05.615Z,50.93
2023-09-17T10:08:09.180Z,52.08
2023-09-17T10:09:11.040Z,50.34
2023-09-17T10:10:12.938Z,50.32
2023-09-17T10:11:16.009Z,49.65
2023-09-17T10:12:18.250Z,50.77
2023-09-17T10:13:21.768Z,48.90
2023-09-17T10:14:48.367Z,49.87
2023-09-17T10:15:48.437Z,48.65
2023-09-17T10:16:50.860Z,49.36
2023-09-17T10:17:52.907Z,48.26
2023-09-17T10:18:57.189Z,50.34
2023-09-17T10:20:03.567Z,50.58
2023-09-17T10:21:06.284Z,50.11
2023-09-17T10:22:09.719Z,49.48
2023-09-17T10:23:13.496Z,50.46
2023-09-17T10:24:16.277Z,50.61
2023-09-17T10:25:19.071Z,49.18
2023-09-17T10:26:22.953Z,50.67
2023-09-17T10:27:25.072Z,49.56
2023-09-17T10:28:27.616Z,50.73
2023-09-17T10:29:31.961Z,50.87
2023-09-17T10:30:33.939Z,52.31
2023-09-17T10:31:37.373Z,51.26
2023-09-17T10:32:39.910Z,51.33
2023-09-17T10:33:44.852Z,50.36
2023-09-17T10:34:48.603Z,50.39
2023-09-17T10:35:52.053Z,50.61
2023-09-17T10:36:55.862Z,50.43
2023-09-17T10:38:01.984Z,50.21
2023-09-17T10:39:04.169Z,49.55
2023-09-17T10:40:08.961Z,46.66
2023-09-17T10:41:11.801Z,47.14
2023-09-17T10:42:14.581Z,48.69
2023-09-17T10:43:18.537Z,49.59
2023-09-17T10:44:21.406Z,49.10
2023-09-17T10:45:26.837Z,49.35
2023-09-17T10:46:32.019Z,48.46
2023-09-17T10:47:34.501Z,48.07
2023-09-17T10:48:37.625Z,47.57
2023-09-17T10:49:40.154Z,47.43
2023-09-17T10:50:43.803Z,47.25
2023-09-17T10:51:47.242Z,48.14
2023-09-17T10:52:49.966Z,47.55
2023-09-17T10:53:53.151Z,47.68
2023-09-17T10:54:54.906Z,47.06
2023-09-17T10:56:01.331Z,46.21
2023-09-17T10:57:08.080Z,47.15
2023-09-17T10:58:16.941Z,47.05
2023-09-17T10:59:20.334Z,47.88
2023-09-17T11:00:24.174Z,47.04
2023-09-17T11:01:30.989Z,46.15
2023-09-17T11:02:35.628Z,46.52
2023-09-17T11:03:41.186Z,46.27
2023-09-17T11:04:45.086Z,46.97
2023-09-17T11:05:49.098Z,45.83
2023-09-17T11:06:52.190Z,45.46
2023-09-17T11:07:58.447Z,45.67
2023-09-17T11:09:00.247Z,46.41
2023-09-17T11:10:02.332Z,46.40
2023-09-17T11:11:04.130Z,46.02
2023-09-17T11:12:09.310Z,47.12
2023-09-17T11:13:14.534Z,46.89
2023-09-17T11:14:17.015Z,46.86
2023-09-17T11:15:19.337Z,47.42
2023-09-17T11:16:22.328Z,46.13
2023-09-17T11:17:31.031Z,45.04
2023-09-17T11:18:34.407Z,45.54
2023-09-17T11:19:39.701Z,45.66
2023-09-17T11:21:08.348Z,44.31
2023-09-17T11:22:12.957Z,43.74
2023-09-17T11:23:16.043Z,44.01
2023-09-17T11:24:20.945Z,42.55
2023-09-17T11:25:34.431Z,43.49
2023-09-17T11:26:38.378Z,42.46
2023-09-17T11:29:10.327Z,41.66
2023-09-17T11:30:16.073Z,43.70
2023-09-17T11:31:19.139Z,41.84
2023-09-17T11:32:24.126Z,43.82
2023-09-17T11:33:28.485Z,43.89
2023-09-17T11:34:31.815Z,45.07
2023-09-17T11:35:33.719Z,43.02
2023-09-17T11:36:37.659Z,41.57
2023-09-17T11:37:39.312Z,41.31
2023-09-17T11:38:45.873Z,40.18
2023-09-17T11:39:52.390Z,40.54
2023-09-17T11:41:08.193Z,40.86
2023-09-17T11:42:12.668Z,39.56
2023-09-17T11:43:14.576Z,40.34
2023-09-17T11:44:17.052Z,41.98
2023-09-17T11:45:18.818Z,41.97
2023-09-17T11:46:21.562Z,42.03
2023-09-17T11:47:27.939Z,40.36
2023-09-17T11:48:34.481Z,40.17
2023-09-17T11:49:36.675Z,39.48
2023-09-17T11:50:38.830Z,38.07
2023-09-17T11:51:50.352Z,38.08
2023-09-17T11:53:03.430Z,38.61
2023-09-17T11:54:06.567Z,37.57
2023-09-17T11:55:25.538Z,37.92
2023-09-17T11:56:30.503Z,37.09
2023-09-17T11:57:32.306Z,37.41
2023-09-17T11:58:36.291Z,37.19
2023-09-17T12:00:01.509Z,37.40
2023-09-17T12:01:07.821Z,37.49
2023-09-17T12:02:10.599Z,38.90
2023-09-17T12:03:13.599Z,38.69
2023-09-17T12:04:19.271Z,39.31
2023-09-17T12:05:23.149Z,38.50
2023-09-17T12:06:29.376Z,38.46
2023-09-17T12:09:35.577Z,36.81
2023-09-17T12:10:49.713Z,38.21
2023-09-17T12:11:05.632Z,36.67
2023-09-17T12:12:18.171Z,37.17
2023-09-17T12:13:22.322Z,38.09
2023-09-17T12:14:28.512Z,39.02
2023-09-17T12:15:34.180Z,38.70
2023-09-17T12:16:36.124Z,38.12
2023-09-17T12:17:55.659Z,38.47
2023-09-17T12:19:18.567Z,39.29
2023-09-17T12:20:41.894Z,40.62
2023-09-17T12:21:55.923Z,40.20
2023-09-17T12:23:23.103Z,40.55
2023-09-17T12:25:01.916Z,39.63
2023-09-17T12:26:52.906Z,40.03
2023-09-17T12:28:47.797Z,41.78
2023-09-17T12:29:50.041Z,42.98
2023-09-17T12:30:55.090Z,42.29
2023-09-17T12:31:57.204Z,41.82
2023-09-17T12:33:00.010Z,41.40
2023-09-17T12:34:01.673Z,41.38
2023-09-17T12:35:03.690Z,41.07
2023-09-17T12:36:08.387Z,40.94
2023-09-17T12:37:10.031Z,40.87
2023-09-17T12:38:12.989Z,40.95
2023-09-17T12:39:14.968Z,41.48
2023-09-17T12:40:16.771Z,40.69
2023-09-17T12:41:28.211Z,41.29
2023-09-17T12:42:37.708Z,42.08
2023-09-17T12:43:39.567Z,41.33
2023-09-17T12:44:41.278Z,39.07
2023-09-17T12:45:42.991Z,40.16
2023-09-17T12:46:45.026Z,38.72
2023-09-17T12:47:46.917Z,38.18
2023-09-17T12:48:48.726Z,38.56
2023-09-17T12:49:50.382Z,36.55
2023-09-17T12:50:52.105Z,34.35
2023-09-17T12:51:54.168Z,34.84
2023-09-17T12:52:55.939Z,35.60
2023-09-17T12:53:59.284Z,35.08
2023-09-17T12:55:01.168Z,34.78
2023-09-17T12:56:04.453Z,36.15
2023-09-17T12:57:07.108Z,35.63
2023-09-17T12:58:08.987Z,35.42
2023-09-17T12:59:10.637Z,34.08
2023-09-17T13:00:13.430Z,31.80
2023-09-17T13:01:15.454Z,32.35
2023-09-17T13:02:17.195Z,32.19
2023-09-17T13:03:19.255Z,32.42
2023-09-17T13:04:21.035Z,32.17
2023-09-17T13:05:23.011Z,30.85
2023-09-17T13:06:26.661Z,31.42
2023-09-17T13:07:31.720Z,31.13
2023-09-17T13:08:33.474Z,32.35
2023-09-17T13:09:36.606Z,32.79
2023-09-17T13:10:38.752Z,33.63
2023-09-17T13:11:40.469Z,32.53
2023-09-17T13:12:44.773Z,32.12
2023-09-17T13:13:47.392Z,31.66
2023-09-17T13:14:49.482Z,29.94
2023-09-17T13:15:51.342Z,30.95
2023-09-17T13:16:53.382Z,31.00
2023-09-17T13:17:56.210Z,32.41
2023-09-17T13:18:57.990Z,32.82
2023-09-17T13:19:59.997Z,33.08
2023-09-17T13:21:01.783Z,33.07
2023-09-17T13:22:03.875Z,32.32
2023-09-17T13:23:05.522Z,33.17
2023-09-17T13:24:12.628Z,32.38
2023-09-17T13:25:16.635Z,33.83
2023-09-17T13:26:18.637Z,33.62
2023-09-17T13:27:22.848Z,33.66
2023-09-17T13:28:24.695Z,31.67
2023-09-17T13:29:34.672Z,31.10
2023-09-17T13:30:38.876Z,28.81
2023-09-17T13:31:41.347Z,29.83
2023-09-17T13:32:43.122Z,29.00
2023-09-17T13:33:45.778Z,29.96
2023-09-17T13:34:48.327Z,30.25
2023-09-17T13:35:51.245Z,30.59
2023-09-17T13:36:53.020Z,29.68
2023-09-17T13:37:54.745Z,30.33
2023-09-17T13:38:56.563Z,30.48
2023-09-17T13:39:58.178Z,30.64
2023-09-17T13:41:01.384Z,32.32
2023-09-17T13:42:03.472Z,31.04
2023-09-17T13:43:05.738Z,28.89
2023-09-17T13:44:07.645Z,27.60
2023-09-17T13:45:09.881Z,27.53
2023-09-17T13:46:16.210Z,27.40
2023-09-17T13:47:17.863Z,27.39
2023-09-17T13:48:19.478Z,28.47
2023-09-17T13:49:21.128Z,28.14
2023-09-17T13:50:22.774Z,27.72
2023-09-17T13:51:24.384Z,28.74
2023-09-17T13:52:26.006Z,29.03
2023-09-17T13:53:27.696Z,28.22
2023-09-17T13:54:29.306Z,30.02